Argyle, New York
Current Conditions -  °F | °C
As of 2:37 PM on Friday 24 Oct 2014 (Local Time) from KGFL Reporting Station
Overcast Overcast  
Wind Chill: 47°   Ceiling: 1500
Heat Index: 47°   Visibility: 10mi
Dew Point: 44°   Wind: 3mph
Humidity: 90%   Direction: 60°ENE
Pressure: 29.81"   Gusts: NA
Location:  43.24°N, 73.49°W
Report Text: KGFL 241837Z AUTO 06003KT 10SM OVC015 08/07 A2981 RMK AO2 T00830067
Loading
Personal Weather Stations






























Interactive Weather Map
Tropical Storm Tracking
New forecast layout! Learn more

10-Day Weather Forecast

Advertisements
Track Severe Weather on mobile